createdAt,value
2024-02-29T00:00:16.448Z,85.17
2024-02-29T00:01:07.290Z,84.88
2024-02-29T00:01:58.818Z,84.52
2024-02-29T00:02:49.832Z,84.68
2024-02-29T00:03:40.682Z,84.53
2024-02-29T00:04:32.959Z,84.71
2024-02-29T00:05:26.204Z,84.88
2024-02-29T00:06:16.856Z,84.82
2024-02-29T00:07:07.912Z,85.08
2024-02-29T00:07:58.733Z,85.39
2024-02-29T00:08:50.140Z,85.70
2024-02-29T00:09:41.106Z,85.47
2024-02-29T00:10:32.018Z,85.00
2024-02-29T00:11:22.925Z,84.82
2024-02-29T00:12:13.750Z,85.30
2024-02-29T00:13:04.877Z,85.13
2024-02-29T00:13:55.929Z,85.03
2024-02-29T00:14:46.381Z,85.50
2024-02-29T00:15:37.326Z,85.43
2024-02-29T00:16:28.219Z,85.58
2024-02-29T00:17:22.550Z,85.32
2024-02-29T00:18:13.809Z,85.67
2024-02-29T00:19:05.096Z,85.48
2024-02-29T00:19:55.801Z,85.70
2024-02-29T00:20:46.618Z,85.91
2024-02-29T00:21:39.456Z,85.96
2024-02-29T00:22:31.498Z,85.99
2024-02-29T00:23:22.367Z,85.61
2024-02-29T00:24:13.419Z,85.67
2024-02-29T00:25:04.513Z,85.87
2024-02-29T00:25:55.647Z,85.86
2024-02-29T00:26:46.756Z,85.64
2024-02-29T00:27:37.314Z,85.46
2024-02-29T00:28:28.255Z,85.59
2024-02-29T00:29:19.176Z,85.67
2024-02-29T00:30:11.445Z,85.36
2024-02-29T00:31:02.539Z,85.63
2024-02-29T00:31:53.692Z,85.43
2024-02-29T00:32:44.447Z,85.91
2024-02-29T00:33:35.335Z,86.04
2024-02-29T00:34:26.123Z,86.05
2024-02-29T00:35:17.151Z,85.97
2024-02-29T00:36:10.102Z,85.94
2024-02-29T00:37:01.601Z,85.77
2024-02-29T00:37:52.626Z,85.99
2024-02-29T00:38:43.578Z,86.25
2024-02-29T00:39:34.455Z,85.98
2024-02-29T00:40:25.425Z,86.05
2024-02-29T00:41:16.518Z,86.05
2024-02-29T00:42:07.169Z,85.65
2024-02-29T00:42:57.785Z,85.84
2024-02-29T00:43:48.792Z,85.52
2024-02-29T00:44:39.734Z,85.48
2024-02-29T00:45:30.595Z,85.67
2024-02-29T00:46:21.342Z,85.41
2024-02-29T00:47:13.061Z,85.79
2024-02-29T00:48:04.131Z,85.68
2024-02-29T00:48:55.101Z,85.69
2024-02-29T00:49:45.924Z,85.46
2024-02-29T00:50:37.011Z,85.12
2024-02-29T00:51:28.082Z,85.43
2024-02-29T00:52:18.825Z,85.82
2024-02-29T00:53:09.723Z,85.44
2024-02-29T00:54:00.607Z,85.67
2024-02-29T00:54:51.444Z,85.65
2024-02-29T00:55:42.360Z,85.93
2024-02-29T00:56:33.351Z,85.94
2024-02-29T00:57:24.449Z,85.72
2024-02-29T00:58:15.261Z,85.52
2024-02-29T00:59:06.138Z,85.72
2024-02-29T00:59:57.004Z,86.22
2024-02-29T01:00:49.533Z,86.35
2024-02-29T01:01:40.334Z,85.91
2024-02-29T01:02:31.092Z,86.12
2024-02-29T01:03:21.960Z,86.50
2024-02-29T01:04:12.703Z,86.30
2024-02-29T01:05:04.338Z,86.08
2024-02-29T01:05:55.633Z,85.66
2024-02-29T01:06:46.621Z,85.85
2024-02-29T01:07:37.853Z,85.98
2024-02-29T01:08:28.664Z,85.77
2024-02-29T01:09:21.456Z,85.67
2024-02-29T01:10:15.386Z,86.03
2024-02-29T01:11:06.781Z,85.92
2024-02-29T01:11:58.033Z,85.68
2024-02-29T01:12:48.960Z,85.90
2024-02-29T01:13:39.778Z,85.52
2024-02-29T01:14:30.914Z,85.75
2024-02-29T01:15:21.821Z,86.09
2024-02-29T01:16:12.729Z,85.83
2024-02-29T01:17:03.520Z,86.00
2024-02-29T01:17:54.400Z,85.73
2024-02-29T01:18:45.455Z,85.33
2024-02-29T01:19:36.417Z,85.71
2024-02-29T01:20:27.234Z,85.45
2024-02-29T01:21:18.205Z,85.57
2024-02-29T01:22:09.135Z,85.35
2024-02-29T01:22:59.988Z,85.13
2024-02-29T01:23:50.779Z,85.11
2024-02-29T01:24:41.799Z,85.33
2024-02-29T01:25:32.688Z,85.49
2024-02-29T01:26:23.561Z,85.75
2024-02-29T01:27:14.515Z,86.14
2024-02-29T01:28:05.822Z,85.92
2024-02-29T01:28:57.385Z,85.84
2024-02-29T01:29:48.471Z,86.05
2024-02-29T01:30:39.464Z,86.34
2024-02-29T01:31:30.308Z,86.26
2024-02-29T01:32:26.508Z,85.92
2024-02-29T01:33:19.146Z,86.26
2024-02-29T01:34:10.038Z,86.20
2024-02-29T01:35:00.881Z,86.32
2024-02-29T01:35:51.780Z,86.31
2024-02-29T01:36:45.714Z,86.23
2024-02-29T01:37:36.430Z,86.17
2024-02-29T01:38:27.161Z,86.23
2024-02-29T01:39:18.942Z,86.28
2024-02-29T01:40:10.445Z,86.18
2024-02-29T01:41:01.226Z,86.21
2024-02-29T01:41:52.157Z,86.38
2024-02-29T01:42:43.152Z,86.76
2024-02-29T01:43:33.943Z,86.66
2024-02-29T01:44:24.738Z,87.04
2024-02-29T01:45:17.762Z,86.44
2024-02-29T01:46:15.510Z,86.79
2024-02-29T01:47:07.941Z,86.48
2024-02-29T01:48:00.858Z,86.76
2024-02-29T01:48:53.103Z,86.60
2024-02-29T01:49:44.844Z,86.56
2024-02-29T01:50:37.336Z,86.10
2024-02-29T01:51:28.733Z,86.57
2024-02-29T01:52:21.324Z,86.51
2024-02-29T01:53:12.399Z,86.46
2024-02-29T01:54:03.403Z,86.41
2024-02-29T01:54:54.188Z,86.52
2024-02-29T01:55:45.160Z,86.43
2024-02-29T01:56:36.197Z,86.53
2024-02-29T01:57:27.806Z,86.70
2024-02-29T01:58:19.370Z,86.73
2024-02-29T01:59:11.092Z,86.58
2024-02-29T02:00:03.877Z,87.04
2024-02-29T02:00:55.047Z,87.01
2024-02-29T02:01:45.918Z,86.72
2024-02-29T02:02:39.444Z,86.93
2024-02-29T02:03:31.057Z,87.17
2024-02-29T02:04:21.655Z,86.85
2024-02-29T02:05:12.697Z,86.83
2024-02-29T02:06:03.394Z,86.79
2024-02-29T02:06:57.640Z,86.61
2024-02-29T02:07:49.405Z,86.98
2024-02-29T02:08:39.955Z,86.85
2024-02-29T02:09:30.960Z,86.95
2024-02-29T02:10:22.816Z,86.59
2024-02-29T02:11:13.989Z,87.12
2024-02-29T02:12:05.110Z,87.19
2024-02-29T02:12:55.968Z,86.91
2024-02-29T02:13:47.146Z,86.97
2024-02-29T02:14:41.531Z,86.77
2024-02-29T02:15:32.242Z,86.64
2024-02-29T02:16:23.053Z,87.15
2024-02-29T02:17:14.244Z,86.90
2024-02-29T02:18:05.174Z,86.97
2024-02-29T02:18:56.607Z,87.15
2024-02-29T02:19:48.560Z,87.12
2024-02-29T02:20:39.408Z,87.31
2024-02-29T02:21:30.531Z,87.31
2024-02-29T02:22:21.340Z,87.43
2024-02-29T02:23:12.272Z,87.45
2024-02-29T02:24:03.258Z,87.43
2024-02-29T02:24:54.206Z,87.77
2024-02-29T02:25:45.043Z,88.27
2024-02-29T02:26:36.054Z,87.58
2024-02-29T02:27:26.991Z,88.00
2024-02-29T02:28:18.044Z,88.06
2024-02-29T02:29:09.037Z,87.93
2024-02-29T02:30:00.218Z,87.60
2024-02-29T02:30:50.966Z,88.15
2024-02-29T02:31:41.788Z,87.51
2024-02-29T02:32:32.736Z,88.11
2024-02-29T02:33:23.571Z,88.20
2024-02-29T02:34:14.846Z,87.64
2024-02-29T02:35:05.988Z,87.39
2024-02-29T02:35:57.044Z,87.57
2024-02-29T02:36:48.656Z,87.58
2024-02-29T02:37:39.765Z,87.13
2024-02-29T02:38:30.560Z,87.25
2024-02-29T02:39:21.060Z,87.21
2024-02-29T02:40:12.318Z,86.97
2024-02-29T02:41:03.463Z,87.16
2024-02-29T02:41:54.304Z,86.98
2024-02-29T02:42:47.521Z,87.14
2024-02-29T02:43:38.169Z,86.68
2024-02-29T02:44:29.203Z,86.71
2024-02-29T02:45:19.746Z,86.88
2024-02-29T02:46:10.739Z,87.27
2024-02-29T02:47:01.644Z,86.73
2024-02-29T02:47:52.577Z,86.80
2024-02-29T02:48:43.612Z,87.18
2024-02-29T02:49:34.308Z,87.16
2024-02-29T02:50:25.959Z,87.49
2024-02-29T02:51:16.714Z,87.35
2024-02-29T02:52:07.475Z,87.91
2024-02-29T02:52:58.334Z,87.21
2024-02-29T02:53:49.238Z,87.74
2024-02-29T02:54:41.000Z,87.44
2024-02-29T02:55:32.009Z,87.75
2024-02-29T02:56:22.644Z,87.58
2024-02-29T02:57:13.784Z,87.62
2024-02-29T02:58:05.047Z,87.55
2024-02-29T02:58:56.010Z,87.24
2024-02-29T02:59:46.935Z,87.68
2024-02-29T03:00:38.024Z,87.20
2024-02-29T03:01:30.050Z,87.13
2024-02-29T03:02:20.537Z,87.33
2024-02-29T03:03:11.497Z,87.54
2024-02-29T03:04:02.632Z,87.36
2024-02-29T03:04:53.608Z,87.79
2024-02-29T03:05:44.772Z,87.60
2024-02-29T03:06:35.740Z,87.64
2024-02-29T03:07:26.869Z,87.00
2024-02-29T03:08:17.457Z,87.07
2024-02-29T03:09:09.132Z,87.03
2024-02-29T03:10:00.365Z,87.56
2024-02-29T03:10:51.618Z,87.00
2024-02-29T03:11:42.492Z,86.76
2024-02-29T03:12:33.434Z,86.99
2024-02-29T03:13:24.277Z,86.81
2024-02-29T03:14:16.255Z,87.13
2024-02-29T03:15:07.823Z,87.60
2024-02-29T03:15:58.697Z,87.98
2024-02-29T03:16:49.406Z,87.62
2024-02-29T03:17:40.432Z,87.94
2024-02-29T03:18:31.286Z,87.99
2024-02-29T03:19:22.253Z,87.83
2024-02-29T03:20:15.877Z,87.75
2024-02-29T03:21:07.263Z,87.60
2024-02-29T03:21:58.478Z,87.63
2024-02-29T03:22:49.640Z,87.50
2024-02-29T03:23:40.653Z,87.27
2024-02-29T03:24:31.521Z,87.43
2024-02-29T03:25:22.516Z,87.30
2024-02-29T03:26:13.322Z,87.25
2024-02-29T03:27:04.214Z,87.39
2024-02-29T03:27:55.613Z,87.54
2024-02-29T03:28:46.478Z,87.40
2024-02-29T03:29:37.325Z,87.05
2024-02-29T03:30:28.381Z,87.11
2024-02-29T03:31:19.754Z,87.58
2024-02-29T03:32:11.540Z,87.11
2024-02-29T03:33:02.672Z,87.15
2024-02-29T03:33:53.911Z,87.11
2024-02-29T03:34:44.728Z,87.25
2024-02-29T03:35:35.871Z,87.22
2024-02-29T03:36:28.481Z,87.10
2024-02-29T03:37:19.675Z,87.02
2024-02-29T03:38:10.615Z,87.37
2024-02-29T03:39:01.378Z,87.53
2024-02-29T03:39:52.131Z,87.47
2024-02-29T03:40:43.741Z,87.50
2024-02-29T03:41:34.569Z,87.77
2024-02-29T03:42:25.167Z,87.48
2024-02-29T03:43:16.120Z,87.06
2024-02-29T03:44:07.028Z,87.20
2024-02-29T03:44:58.395Z,86.60
2024-02-29T03:45:49.407Z,86.89
2024-02-29T03:46:40.342Z,86.77
2024-02-29T03:47:31.471Z,86.67
2024-02-29T03:48:22.179Z,86.36
2024-02-29T03:49:13.309Z,86.89
2024-02-29T03:50:04.490Z,87.13
2024-02-29T03:50:55.109Z,87.17
2024-02-29T03:51:45.805Z,87.43
2024-02-29T03:52:36.920Z,87.07
2024-02-29T03:53:27.646Z,87.23
2024-02-29T03:54:18.461Z,87.28
2024-02-29T03:55:10.463Z,86.93
2024-02-29T03:56:01.806Z,86.79
2024-02-29T03:56:52.592Z,86.79
2024-02-29T03:57:43.395Z,87.21
2024-02-29T03:58:34.285Z,87.21
2024-02-29T03:59:26.172Z,87.48
2024-02-29T04:00:17.014Z,86.99
2024-02-29T04:01:11.703Z,87.15
2024-02-29T04:02:03.191Z,86.56
2024-02-29T04:02:53.963Z,86.88
2024-02-29T04:03:45.704Z,86.49
2024-02-29T04:04:36.605Z,87.17
2024-02-29T04:05:27.603Z,86.58
2024-02-29T04:06:18.388Z,87.06
2024-02-29T04:07:09.348Z,86.98
2024-02-29T04:08:04.821Z,86.85
2024-02-29T04:08:56.045Z,86.96
2024-02-29T04:09:46.796Z,86.94
2024-02-29T04:10:47.386Z,86.68
2024-02-29T04:11:38.690Z,86.18
2024-02-29T04:12:29.634Z,87.07
2024-02-29T04:13:20.604Z,86.79
2024-02-29T04:14:11.544Z,87.01
2024-02-29T04:15:02.838Z,87.26
2024-02-29T04:15:53.893Z,86.82
2024-02-29T04:16:44.685Z,86.64
2024-02-29T04:17:35.655Z,86.65
2024-02-29T04:18:26.519Z,86.25
2024-02-29T04:19:17.859Z,86.70
2024-02-29T04:20:09.824Z,86.77
2024-02-29T04:21:00.896Z,86.59
2024-02-29T04:21:54.091Z,86.95
2024-02-29T04:22:45.129Z,87.00
2024-02-29T04:23:36.123Z,86.95
2024-02-29T04:24:27.433Z,87.20
2024-02-29T04:25:18.053Z,86.83
2024-02-29T04:26:08.904Z,87.34
2024-02-29T04:26:59.873Z,87.06
2024-02-29T04:27:52.254Z,87.13
2024-02-29T04:28:43.199Z,87.52
2024-02-29T04:29:34.460Z,87.04
2024-02-29T04:30:25.158Z,87.08
2024-02-29T04:31:16.266Z,87.44
2024-02-29T04:32:08.315Z,87.34
2024-02-29T04:33:00.054Z,87.60
2024-02-29T04:33:52.212Z,86.96
2024-02-29T04:34:43.453Z,87.09
2024-02-29T04:35:34.976Z,87.29
2024-02-29T04:36:25.936Z,87.19
2024-02-29T04:37:17.089Z,87.49
2024-02-29T04:38:08.168Z,87.63
2024-02-29T04:38:59.066Z,87.58
2024-02-29T04:39:50.094Z,87.16
2024-02-29T04:40:40.885Z,87.32
2024-02-29T04:41:31.907Z,87.92
2024-02-29T04:42:22.828Z,88.36
2024-02-29T04:43:13.601Z,87.74
2024-02-29T04:44:04.384Z,87.90
2024-02-29T04:44:55.343Z,88.26
2024-02-29T04:45:46.358Z,87.86
2024-02-29T04:46:37.588Z,87.68
2024-02-29T04:47:28.542Z,87.64
2024-02-29T04:48:19.320Z,88.03
2024-02-29T04:49:10.274Z,88.32
2024-02-29T04:50:01.376Z,87.63
2024-02-29T04:50:52.003Z,88.02
2024-02-29T04:51:43.011Z,88.07
2024-02-29T04:52:33.872Z,88.09
2024-02-29T04:53:24.854Z,88.22
2024-02-29T04:54:15.582Z,87.98
2024-02-29T04:55:06.682Z,87.87
2024-02-29T04:55:58.283Z,88.20
2024-02-29T04:56:48.841Z,88.02
2024-02-29T04:57:39.818Z,88.43
2024-02-29T04:58:31.153Z,88.64
2024-02-29T04:59:22.030Z,88.05
2024-02-29T05:00:14.311Z,88.14
2024-02-29T05:01:05.710Z,88.20
2024-02-29T05:01:56.597Z,88.02
2024-02-29T05:02:47.432Z,87.94
2024-02-29T05:03:38.341Z,88.46
2024-02-29T05:04:29.386Z,88.32
2024-02-29T05:05:20.358Z,88.07
2024-02-29T05:06:15.513Z,88.10
2024-02-29T05:07:06.232Z,87.70
2024-02-29T05:07:57.137Z,87.71
2024-02-29T05:08:48.441Z,88.16
2024-02-29T05:09:39.687Z,88.34
2024-02-29T05:10:30.499Z,88.47
2024-02-29T05:11:21.577Z,88.06
2024-02-29T05:12:12.689Z,88.52
2024-02-29T05:13:03.745Z,88.18
2024-02-29T05:13:54.598Z,88.40
2024-02-29T05:14:45.412Z,88.35
2024-02-29T05:15:37.254Z,88.61
2024-02-29T05:16:28.474Z,88.25
2024-02-29T05:17:20.088Z,88.47
2024-02-29T05:18:11.352Z,88.28
2024-02-29T05:19:02.346Z,88.14
2024-02-29T05:19:53.192Z,88.50
2024-02-29T05:20:44.140Z,88.09
2024-02-29T05:21:35.010Z,88.73
2024-02-29T05:22:26.024Z,88.96
2024-02-29T05:23:16.924Z,88.97
2024-02-29T05:24:07.857Z,89.39
2024-02-29T05:24:59.550Z,88.93
2024-02-29T05:25:50.608Z,88.95
2024-02-29T05:26:41.208Z,89.16
2024-02-29T05:27:32.079Z,89.31
2024-02-29T05:28:22.720Z,89.08
2024-02-29T05:29:13.647Z,89.37
2024-02-29T05:30:05.739Z,88.89
2024-02-29T05:30:57.018Z,89.19
2024-02-29T05:31:53.180Z,89.25
2024-02-29T05:32:44.456Z,89.59
2024-02-29T05:33:35.351Z,89.31
2024-02-29T05:34:26.390Z,89.16
2024-02-29T05:35:17.312Z,89.13
2024-02-29T05:36:08.600Z,88.88
2024-02-29T05:36:59.325Z,89.31
2024-02-29T05:37:50.302Z,89.16
2024-02-29T05:38:41.507Z,89.07
2024-02-29T05:39:35.102Z,89.67
2024-02-29T05:40:27.952Z,89.46
2024-02-29T05:41:19.122Z,89.27
2024-02-29T05:42:10.648Z,89.64
2024-02-29T05:43:04.670Z,89.51
2024-02-29T05:43:55.574Z,89.68
2024-02-29T05:44:46.694Z,89.70
2024-02-29T05:45:37.421Z,89.66
2024-02-29T05:46:30.733Z,89.85
2024-02-29T05:47:22.072Z,89.40
2024-02-29T05:48:12.762Z,88.99
2024-02-29T05:49:03.791Z,88.80
2024-02-29T05:49:56.121Z,89.02
2024-02-29T05:50:46.645Z,89.34
2024-02-29T05:51:37.803Z,89.56
2024-02-29T05:52:28.518Z,89.41
2024-02-29T05:53:19.398Z,89.48
2024-02-29T05:54:10.067Z,89.42
2024-02-29T05:55:01.292Z,89.84
2024-02-29T05:55:52.408Z,89.57
2024-02-29T05:56:43.195Z,89.55
2024-02-29T05:57:35.688Z,89.82
2024-02-29T05:58:31.710Z,89.47
2024-02-29T05:59:22.522Z,89.45
2024-02-29T06:00:14.153Z,89.57
2024-02-29T06:01:05.777Z,89.35
2024-02-29T06:01:56.697Z,89.01
2024-02-29T06:02:49.905Z,89.62
2024-02-29T06:03:41.616Z,89.25
2024-02-29T06:04:32.495Z,89.08
2024-02-29T06:05:23.644Z,89.40
2024-02-29T06:06:17.634Z,88.90
2024-02-29T06:07:08.519Z,88.76
2024-02-29T06:07:59.423Z,88.92
2024-02-29T06:08:50.476Z,89.06
2024-02-29T06:09:42.883Z,88.96
2024-02-29T06:10:34.003Z,89.22
2024-02-29T06:11:25.052Z,89.31
2024-02-29T06:12:16.025Z,88.77
2024-02-29T06:13:06.991Z,88.87
2024-02-29T06:13:57.934Z,89.41
2024-02-29T06:14:48.911Z,89.17
2024-02-29T06:15:39.808Z,89.07
2024-02-29T06:16:30.992Z,88.68
2024-02-29T06:17:22.322Z,88.47
2024-02-29T06:18:14.634Z,89.01
2024-02-29T06:19:05.620Z,89.12
2024-02-29T06:19:56.480Z,88.76
2024-02-29T06:20:49.316Z,88.59
2024-02-29T06:21:39.960Z,88.86
2024-02-29T06:22:30.732Z,88.76
2024-02-29T06:23:21.723Z,88.26
2024-02-29T06:24:19.491Z,88.36
2024-02-29T06:25:11.262Z,87.94
2024-02-29T06:26:13.022Z,87.82
2024-02-29T06:27:04.140Z,87.55
2024-02-29T06:27:54.742Z,87.62
2024-02-29T06:28:45.680Z,86.97
2024-02-29T06:29:36.500Z,86.96
2024-02-29T06:30:33.353Z,86.32
2024-02-29T06:31:26.767Z,85.73
2024-02-29T06:32:17.726Z,85.83
2024-02-29T06:33:08.252Z,85.41
2024-02-29T06:33:59.368Z,85.19
2024-02-29T06:34:50.514Z,84.92
2024-02-29T06:35:41.156Z,84.04
2024-02-29T06:36:32.050Z,83.41
2024-02-29T06:37:22.885Z,82.94
2024-02-29T06:38:13.942Z,82.30
2024-02-29T06:39:08.963Z,82.74
2024-02-29T06:39:59.948Z,82.38
2024-02-29T06:40:50.780Z,82.12
2024-02-29T06:41:44.998Z,81.72
2024-02-29T06:42:36.010Z,81.53
2024-02-29T06:43:28.227Z,80.90
2024-02-29T06:44:20.215Z,80.76
2024-02-29T06:45:11.770Z,80.50
2024-02-29T06:46:06.319Z,79.46
2024-02-29T06:46:57.000Z,78.81
2024-02-29T06:47:48.477Z,78.41
2024-02-29T06:48:40.284Z,77.43
2024-02-29T06:49:31.700Z,76.88
2024-02-29T06:50:22.373Z,76.65
2024-02-29T06:51:13.345Z,76.88
2024-02-29T06:52:04.319Z,76.41
2024-02-29T06:52:55.321Z,75.92
2024-02-29T06:53:46.026Z,75.32
2024-02-29T06:54:37.149Z,75.15
2024-02-29T06:55:28.803Z,75.06
2024-02-29T06:56:19.886Z,73.40
2024-02-29T06:57:11.143Z,72.83
2024-02-29T06:58:04.058Z,73.45
2024-02-29T06:58:54.784Z,71.91
2024-02-29T06:59:45.849Z,71.18
2024-02-29T07:00:36.814Z,71.05
2024-02-29T07:01:28.070Z,70.64
2024-02-29T07:02:18.991Z,70.90
2024-02-29T07:03:10.525Z,70.15
2024-02-29T07:04:01.215Z,69.48
2024-02-29T07:04:52.101Z,68.71
2024-02-29T07:05:43.206Z,67.71
2024-02-29T07:06:35.954Z,67.67
2024-02-29T07:07:26.949Z,67.87
2024-02-29T07:08:17.711Z,67.75
2024-02-29T07:09:08.853Z,68.14
2024-02-29T07:10:00.009Z,67.12
2024-02-29T07:10:50.869Z,66.20
2024-02-29T07:11:41.938Z,66.26
2024-02-29T07:12:32.865Z,66.41
2024-02-29T07:13:23.902Z,66.52
2024-02-29T07:14:15.059Z,66.75
2024-02-29T07:15:06.664Z,66.32
2024-02-29T07:15:57.352Z,66.49
2024-02-29T07:16:48.081Z,67.17
2024-02-29T07:17:39.192Z,66.79
2024-02-29T07:18:30.336Z,66.24
2024-02-29T07:19:21.108Z,66.57
2024-02-29T07:20:14.507Z,66.25
2024-02-29T07:21:05.939Z,66.53
2024-02-29T07:21:56.972Z,67.06
2024-02-29T07:22:48.302Z,67.10
2024-02-29T07:23:38.876Z,66.54
2024-02-29T07:24:30.488Z,67.05
2024-02-29T07:25:21.672Z,66.43
2024-02-29T07:26:12.379Z,65.58
2024-02-29T07:27:03.282Z,65.62
2024-02-29T07:27:55.990Z,65.31
2024-02-29T07:28:46.730Z,65.09
2024-02-29T07:29:37.820Z,65.02
2024-02-29T07:30:28.839Z,64.82
2024-02-29T07:31:21.227Z,64.91
2024-02-29T07:32:12.378Z,64.88
2024-02-29T07:33:03.356Z,65.03
2024-02-29T07:33:55.015Z,65.00
2024-02-29T07:34:45.745Z,64.03
2024-02-29T07:35:37.039Z,63.83
2024-02-29T07:36:28.900Z,63.90
2024-02-29T07:37:19.554Z,63.90
2024-02-29T07:38:10.424Z,63.66
2024-02-29T07:39:01.238Z,63.71
2024-02-29T07:39:52.253Z,63.33
2024-02-29T07:40:43.300Z,62.66
2024-02-29T07:41:34.356Z,62.99
2024-02-29T07:42:24.918Z,62.68
2024-02-29T07:43:15.628Z,62.90
2024-02-29T07:44:08.893Z,62.13
2024-02-29T07:44:59.508Z,62.68
2024-02-29T07:45:51.301Z,62.22
2024-02-29T07:46:42.220Z,62.02
2024-02-29T07:47:32.925Z,62.31
2024-02-29T07:48:25.643Z,61.77
2024-02-29T07:49:16.483Z,61.97
2024-02-29T07:50:07.891Z,61.28
2024-02-29T07:50:58.685Z,62.52
2024-02-29T07:51:49.913Z,62.48
2024-02-29T07:52:40.896Z,62.03
2024-02-29T07:53:31.828Z,62.37
2024-02-29T07:54:22.675Z,62.03
2024-02-29T07:55:15.868Z,61.35
2024-02-29T07:56:08.115Z,61.26
2024-02-29T07:56:59.036Z,61.24
2024-02-29T07:57:50.285Z,61.48
2024-02-29T07:58:41.068Z,61.70
2024-02-29T07:59:31.907Z,62.60
2024-02-29T08:00:22.392Z,62.70
2024-02-29T08:01:14.453Z,63.64
2024-02-29T08:02:05.691Z,64.20
2024-02-29T08:02:56.776Z,63.32
2024-02-29T08:03:47.849Z,63.85
2024-02-29T08:04:38.627Z,64.63
2024-02-29T08:05:29.581Z,64.84
2024-02-29T08:06:20.380Z,64.45
2024-02-29T08:07:12.376Z,63.91
2024-02-29T08:08:03.484Z,64.01
2024-02-29T08:08:54.476Z,64.11
2024-02-29T08:09:45.982Z,63.47
2024-02-29T08:10:36.867Z,63.76
2024-02-29T08:11:27.792Z,63.62
2024-02-29T08:12:18.717Z,63.47
2024-02-29T08:13:09.777Z,63.42
2024-02-29T08:14:00.848Z,63.60
2024-02-29T08:14:51.699Z,63.62
2024-02-29T08:15:42.671Z,63.53
2024-02-29T08:16:33.442Z,63.67
2024-02-29T08:17:28.213Z,63.80
2024-02-29T08:18:19.978Z,63.41
2024-02-29T08:19:10.984Z,62.71
2024-02-29T08:20:01.927Z,62.57
2024-02-29T08:20:52.747Z,63.27
2024-02-29T08:21:43.696Z,62.91
2024-02-29T08:22:36.442Z,63.70
2024-02-29T08:23:27.628Z,63.72
2024-02-29T08:24:18.432Z,64.30
2024-02-29T08:25:09.867Z,63.95
2024-02-29T08:26:00.968Z,64.22
2024-02-29T08:26:52.003Z,64.81
2024-02-29T08:27:42.586Z,63.67
2024-02-29T08:28:33.465Z,63.79
2024-02-29T08:29:24.462Z,64.08
2024-02-29T08:30:15.510Z,63.69
2024-02-29T08:31:07.221Z,63.04
2024-02-29T08:31:58.346Z,63.21
2024-02-29T08:32:49.918Z,63.10
2024-02-29T08:33:40.818Z,63.89
2024-02-29T08:34:32.104Z,63.46
2024-02-29T08:35:22.768Z,63.13
2024-02-29T08:36:14.111Z,63.12
2024-02-29T08:37:05.001Z,63.76
2024-02-29T08:37:57.914Z,62.88
2024-02-29T08:38:49.401Z,63.04
2024-02-29T08:39:42.600Z,63.32
2024-02-29T08:40:33.849Z,63.25
2024-02-29T08:41:25.406Z,63.23
2024-02-29T08:42:15.896Z,63.58
2024-02-29T08:43:07.162Z,63.56
2024-02-29T08:43:57.777Z,62.86
2024-02-29T08:44:49.975Z,62.55
2024-02-29T08:45:40.578Z,63.30
2024-02-29T08:46:31.345Z,63.70
2024-02-29T08:47:22.151Z,63.59
2024-02-29T08:48:13.287Z,63.42
2024-02-29T08:49:04.322Z,63.50
2024-02-29T08:49:55.313Z,62.85
2024-02-29T08:50:46.363Z,63.10
2024-02-29T08:51:37.436Z,61.93
2024-02-29T08:52:28.820Z,62.48
2024-02-29T08:53:19.897Z,62.60
2024-02-29T08:54:11.022Z,62.05
2024-02-29T08:55:02.162Z,62.09
2024-02-29T08:55:53.161Z,61.52
2024-02-29T08:56:44.051Z,61.25
2024-02-29T08:57:35.666Z,61.61
2024-02-29T08:58:26.446Z,61.31
2024-02-29T08:59:18.659Z,61.53
2024-02-29T09:00:10.641Z,60.86
2024-02-29T09:01:02.158Z,60.88
2024-02-29T09:01:54.591Z,60.82
2024-02-29T09:02:46.147Z,60.85
2024-02-29T09:03:37.151Z,60.93
2024-02-29T09:04:30.423Z,61.30
2024-02-29T09:05:20.988Z,61.05
2024-02-29T09:06:13.762Z,60.76
2024-02-29T09:07:04.773Z,60.13
2024-02-29T09:07:55.671Z,60.18
2024-02-29T09:08:46.611Z,60.56
2024-02-29T09:09:37.772Z,60.52
2024-02-29T09:10:28.965Z,60.01
2024-02-29T09:11:20.059Z,60.47
2024-02-29T09:12:11.632Z,60.48
2024-02-29T09:13:12.070Z,60.86
2024-02-29T09:14:11.910Z,61.31
2024-02-29T09:15:03.645Z,60.53
2024-02-29T09:15:54.350Z,60.69
2024-02-29T09:16:45.233Z,60.06
2024-02-29T09:17:36.111Z,60.02
2024-02-29T09:18:27.109Z,59.52
2024-02-29T09:19:18.290Z,59.46
2024-02-29T09:20:09.773Z,59.36
2024-02-29T09:21:00.420Z,59.45
2024-02-29T09:21:51.322Z,59.64
2024-02-29T09:22:42.140Z,59.75
2024-02-29T09:23:32.933Z,60.08
2024-02-29T09:24:23.635Z,59.67
2024-02-29T09:25:14.622Z,60.21
2024-02-29T09:26:05.638Z,59.68
2024-02-29T09:26:56.501Z,59.52
2024-02-29T09:27:47.408Z,59.31
2024-02-29T09:28:38.232Z,59.53
2024-02-29T09:29:31.958Z,59.60
2024-02-29T09:30:25.032Z,59.62
2024-02-29T09:31:16.003Z,59.98
2024-02-29T09:32:06.967Z,59.31
2024-02-29T09:32:58.025Z,58.81
2024-02-29T09:33:48.951Z,58.48
2024-02-29T09:34:44.887Z,58.50
2024-02-29T09:35:38.770Z,58.57
2024-02-29T09:36:32.314Z,58.12
2024-02-29T09:37:23.386Z,58.15
2024-02-29T09:38:14.185Z,57.81
2024-02-29T09:39:06.533Z,58.43
2024-02-29T09:39:57.645Z,58.03
2024-02-29T09:40:52.575Z,58.04
2024-02-29T09:42:08.155Z,58.56
2024-02-29T09:43:01.929Z,58.41
2024-02-29T09:43:54.676Z,59.11
2024-02-29T09:44:47.657Z,58.53
2024-02-29T09:45:41.884Z,58.51
2024-02-29T09:46:32.903Z,57.84
2024-02-29T09:47:25.338Z,57.75
2024-02-29T09:48:16.622Z,57.91
2024-02-29T09:49:09.126Z,57.67
2024-02-29T09:50:04.763Z,57.88
2024-02-29T09:51:02.966Z,57.61
2024-02-29T09:51:54.256Z,57.16
2024-02-29T09:52:46.971Z,56.89
2024-02-29T09:53:39.023Z,56.70
2024-02-29T09:54:33.243Z,56.63
2024-02-29T09:55:24.629Z,56.89
2024-02-29T09:56:16.044Z,57.27
2024-02-29T09:57:16.028Z,57.40
2024-02-29T09:58:09.343Z,57.36
2024-02-29T09:59:01.877Z,57.27
2024-02-29T09:59:52.685Z,57.13
2024-02-29T10:00:43.507Z,56.54
2024-02-29T10:01:34.334Z,56.63
2024-02-29T10:02:25.515Z,56.35
2024-02-29T10:03:19.541Z,57.07
2024-02-29T10:04:10.590Z,56.93
2024-02-29T10:05:01.908Z,56.74
2024-02-29T10:05:53.575Z,56.90
2024-02-29T10:06:44.998Z,56.88
2024-02-29T10:07:48.906Z,56.85
2024-02-29T10:08:40.293Z,56.74
2024-02-29T10:09:31.527Z,57.15
2024-02-29T10:10:22.433Z,57.07
2024-02-29T10:11:13.836Z,57.11
2024-02-29T10:12:05.467Z,56.91
2024-02-29T10:12:56.913Z,56.93
2024-02-29T10:13:48.433Z,56.56
2024-02-29T10:14:39.004Z,56.30
2024-02-29T10:15:30.186Z,56.16
2024-02-29T10:16:21.216Z,56.43
2024-02-29T10:17:12.089Z,56.37
2024-02-29T10:18:04.124Z,56.22
2024-02-29T10:18:55.247Z,56.59
2024-02-29T10:19:51.626Z,56.42
2024-02-29T10:20:43.914Z,56.34
2024-02-29T10:21:35.569Z,56.37
2024-02-29T10:22:26.165Z,56.68
2024-02-29T10:23:16.932Z,56.76
2024-02-29T10:24:07.677Z,56.69
2024-02-29T10:24:59.234Z,56.33
2024-02-29T10:25:51.629Z,56.62
2024-02-29T10:26:42.433Z,56.52
2024-02-29T10:27:33.491Z,56.44
2024-02-29T10:28:24.464Z,56.75
2024-02-29T10:29:17.770Z,57.29
2024-02-29T10:30:16.083Z,57.13
2024-02-29T10:31:06.625Z,57.15
2024-02-29T10:31:59.021Z,57.24
2024-02-29T10:32:49.900Z,56.65
2024-02-29T10:33:48.973Z,56.55
2024-02-29T10:34:40.911Z,56.09
2024-02-29T10:35:32.111Z,56.03
2024-02-29T10:36:24.195Z,56.61
2024-02-29T10:37:15.030Z,56.62
2024-02-29T10:38:09.506Z,56.53
2024-02-29T10:39:00.572Z,56.47
2024-02-29T10:39:51.608Z,55.99
2024-02-29T10:40:42.407Z,56.34
2024-02-29T10:41:37.944Z,56.06
2024-02-29T10:42:28.852Z,55.59
2024-02-29T10:43:21.880Z,55.55
2024-02-29T10:44:13.509Z,55.65
2024-02-29T10:45:06.945Z,55.86
2024-02-29T10:46:00.871Z,55.81
2024-02-29T10:46:54.535Z,56.20
2024-02-29T10:48:16.058Z,55.66
2024-02-29T10:49:29.054Z,55.55
2024-02-29T10:50:25.852Z,55.37
2024-02-29T10:51:33.440Z,55.53
2024-02-29T10:52:31.269Z,55.55
2024-02-29T10:53:43.458Z,55.42
2024-02-29T10:54:43.440Z,55.40
2024-02-29T10:55:43.181Z,54.95
2024-02-29T10:56:36.007Z,54.73
2024-02-29T10:57:29.334Z,55.03
2024-02-29T10:58:27.132Z,55.45
2024-02-29T10:59:19.117Z,54.58
2024-02-29T11:00:12.914Z,54.49
2024-02-29T11:01:08.018Z,54.53
2024-02-29T11:02:00.439Z,54.74
2024-02-29T11:02:54.228Z,55.00
2024-02-29T11:03:47.033Z,54.71
2024-02-29T11:04:38.006Z,55.00
2024-02-29T11:05:29.036Z,54.64